Sheldon, IA

12:40 AM CDT on July 25, 2017 (GMT -0500)
Sheldon Municipal

Weather History for KSHL - June, 2012

Change the Weather History Date:

Monday, June 18, 2012

  Actual Average Record
Temperature  
Mean Temperature 81 °F -  
Max Temperature 91 °F 79 °F 98 °F (1953)
Min Temperature 71 °F 56 °F 45 °F (1976)
Cooling Degree Days 16    
Growing Degree Days 31 (Base 50)    
Moisture  
Dew Point 67 °F    
Average Humidity 60    
Maximum Humidity 79    
Minimum Humidity 43    
Precipitation  
Precipitation 0.00 in - - ()
Sea Level Pressure  
Sea Level Pressure 29.50 in    
Wind  
Wind Speed 12 mph (South)    
Max Wind Speed 20 mph    
Max Gust Speed 29 mph    
Visibility 10 miles    
Events      
Averages and records for this station are not official NWS values.
T = Trace of Precipitation, MM = Missing Value Source: NWS Daily Summary

Daily Weather History Graph

Daily Weather History Graph

Search for Another Location

Airport or City:

Trip Planner

Search our weather history database for the weather conditions in past years. The results will help you decide how hot, cold, wet, or windy it might be!

Date:

Astronomy

Jun. 18, 2012 Rise Set
Actual Time 5:43 AM CDT 9:06 PM CDT
Civil Twilight 5:07 AM CDT 9:41 PM CDT
Nautical Twilight 4:21 AM CDT 10:28 PM CDT
Astronomical Twilight 3:23 AM CDT 11:26 PM CDT
Moon 4:59 AM CDT (6/18) 8:24 PM CDT (6/18)
Length of Visible Light 16h 34m
Length of Day
15h 23m
Waning Crescent, 1% of the Moon is Illuminated
Jun 18
Waning Crescent
Jun 19
New
Jun 26
First Quarter
Jul 3
Full
Jul 10
Last Quarter

Hourly Weather History & Observations

Time (CDT) Temp. Heat Index Dew Point Humidity Pressure Visibility Wind Dir Wind Speed Gust Speed Precip Events Conditions
12:15 AM 80.6 °F 82.7 °F 66.2 °F 61% 29.47 in 10.0 mi SSW 19.6 mph 28.8 mph N/A   Clear
12:35 AM 78.8 °F - 66.2 °F 65% 29.47 in 10.0 mi SSW 18.4 mph 25.3 mph N/A   Clear
1:15 AM 78.8 °F - 66.2 °F 65% 29.46 in 10.0 mi SSW 19.6 mph - N/A   Clear
1:35 AM 78.8 °F - 66.2 °F 65% 29.45 in 10.0 mi SSW 17.3 mph - N/A   Clear
1:55 AM 78.8 °F - 66.2 °F 65% 29.44 in 10.0 mi South 16.1 mph 25.3 mph N/A   Clear
2:15 AM 78.8 °F - 66.2 °F 65% 29.44 in 10.0 mi South 17.3 mph 25.3 mph N/A   Clear
2:35 AM 77.0 °F - 64.4 °F 65% 29.43 in 10.0 mi South 16.1 mph 24.2 mph N/A   Clear
2:55 AM 77.0 °F - 64.4 °F 65% 29.43 in 10.0 mi SSW 16.1 mph 21.9 mph N/A   Clear
3:15 AM 77.0 °F - 64.4 °F 65% 29.43 in 10.0 mi South 17.3 mph 24.2 mph N/A   Unknown
3:35 AM 77.0 °F - 64.4 °F 65% 29.42 in 10.0 mi South 17.3 mph 25.3 mph N/A   Clear
3:55 AM 75.2 °F - 64.4 °F 69% 29.43 in 10.0 mi SSW 15.0 mph 23.0 mph N/A   Clear
4:15 AM 75.2 °F - 64.4 °F 69% 29.44 in 10.0 mi WSW 6.9 mph - N/A   Clear
4:35 AM 75.2 °F - 64.4 °F 69% 29.46 in 10.0 mi WNW 8.1 mph - N/A   Unknown
4:55 AM 73.4 °F - 64.4 °F 73% 29.47 in 10.0 mi North 5.8 mph - N/A   Clear
5:15 AM 73.4 °F - 64.4 °F 73% 29.45 in 10.0 mi SE 3.5 mph - N/A   Clear
5:35 AM 73.4 °F - 64.4 °F 73% 29.45 in 10.0 mi South 3.5 mph - N/A   Clear
5:55 AM 73.4 °F - 64.4 °F 73% 29.44 in 10.0 mi South 8.1 mph - N/A   Clear
6:15 AM 71.6 °F - 62.6 °F 73% 29.44 in 10.0 mi SSE 9.2 mph - N/A   Clear
6:35 AM 73.4 °F - 62.6 °F 69% 29.44 in 10.0 mi South 9.2 mph - N/A   Clear
6:55 AM 73.4 °F - 62.6 °F 69% 29.44 in 10.0 mi South 10.4 mph - N/A   Clear
7:15 AM 75.2 °F - 64.4 °F 69% 29.44 in 10.0 mi South 11.5 mph 17.3 mph N/A   Clear
7:35 AM 75.2 °F - 64.4 °F 69% 29.44 in 10.0 mi South 13.8 mph - N/A   Clear
7:55 AM 75.2 °F - 64.4 °F 69% 29.44 in 10.0 mi South 11.5 mph - N/A   Clear
8:15 AM 77.0 °F - 64.4 °F 65% 29.45 in 10.0 mi South 12.7 mph - N/A   Clear
8:35 AM 78.8 °F - 64.4 °F 61% 29.45 in 10.0 mi South 15.0 mph - N/A   Clear
8:55 AM 78.8 °F - 66.2 °F 65% 29.46 in 10.0 mi SSW 15.0 mph 21.9 mph N/A   Clear
9:15 AM 80.6 °F 82.7 °F 66.2 °F 61% 29.47 in 10.0 mi SSW 13.8 mph - N/A   Clear
9:35 AM 82.4 °F 84.6 °F 66.2 °F 58% 29.47 in 10.0 mi SW 13.8 mph - N/A   Clear
9:55 AM 82.4 °F 84.6 °F 66.2 °F 58% 29.48 in 10.0 mi SW 15.0 mph - N/A   Clear
10:15 AM 84.2 °F 86.6 °F 66.2 °F 55% 29.48 in 10.0 mi SW 12.7 mph - N/A   Clear
10:35 AM 84.2 °F 86.6 °F 66.2 °F 55% 29.48 in 10.0 mi Variable 6.9 mph 13.8 mph N/A   Clear
10:55 AM 84.2 °F 86.6 °F 66.2 °F 55% 29.49 in 10.0 mi WSW 6.9 mph 13.8 mph N/A   Clear
11:15 AM 84.2 °F 85.6 °F 64.4 °F 51% 29.49 in 10.0 mi Calm Calm 12.7 mph N/A   Clear
11:35 AM 86.0 °F 88.2 °F 66.2 °F 51% 29.50 in 10.0 mi South 4.6 mph - N/A   Clear
11:55 AM 86.0 °F 88.2 °F 66.2 °F 51% 29.51 in 10.0 mi Calm Calm - N/A   Clear
12:15 PM 86.0 °F 88.2 °F 66.2 °F 51% 29.51 in 10.0 mi Calm Calm - N/A   Clear
12:35 PM 86.0 °F 88.2 °F 66.2 °F 51% 29.53 in 10.0 mi Calm Calm - N/A   Clear
12:55 PM 86.0 °F 88.2 °F 66.2 °F 51% 29.53 in 10.0 mi Calm Calm - N/A   Clear
1:15 PM 87.8 °F 90.4 °F 66.2 °F 49% 29.54 in 10.0 mi Calm Calm - N/A   Clear
1:35 PM 87.8 °F 91.4 °F 68.0 °F 52% 29.54 in 10.0 mi Variable 6.9 mph - N/A   Clear
1:55 PM 87.8 °F 90.4 °F 66.2 °F 49% 29.54 in 10.0 mi NE 5.8 mph - N/A   Clear
2:15 PM 89.6 °F 92.2 °F 66.2 °F 46% 29.54 in 10.0 mi Variable 3.5 mph - N/A   Clear
2:35 PM 89.6 °F 93.4 °F 68.0 °F 49% 29.54 in 10.0 mi NW 5.8 mph - N/A   Clear
2:55 PM 89.6 °F 93.4 °F 68.0 °F 49% 29.53 in 10.0 mi Variable 4.6 mph 11.5 mph N/A   Clear
3:15 PM 89.6 °F 93.4 °F 68.0 °F 49% 29.53 in 10.0 mi Variable 5.8 mph - N/A   Clear
3:35 PM 89.6 °F 92.2 °F 66.2 °F 46% 29.53 in 10.0 mi SSE 5.8 mph - N/A   Clear
3:55 PM 91.4 °F 94.0 °F 66.2 °F 43% 29.53 in 10.0 mi Calm Calm - N/A   Clear
4:15 PM 91.4 °F 94.0 °F 66.2 °F 43% 29.54 in 10.0 mi Variable 5.8 mph 13.8 mph N/A   Clear
4:35 PM 91.4 °F 95.4 °F 68.0 °F 46% 29.54 in 10.0 mi SSE 9.2 mph - N/A   Scattered Clouds
4:55 PM 91.4 °F 95.4 °F 68.0 °F 46% 29.54 in 10.0 mi SSE 12.7 mph - N/A   Scattered Clouds
5:15 PM 91.4 °F 95.4 °F 68.0 °F 46% 29.54 in 10.0 mi SSE 8.1 mph - N/A   Partly Cloudy
5:35 PM 91.4 °F 95.4 °F 68.0 °F 46% 29.54 in 10.0 mi South 11.5 mph - N/A   Clear
5:55 PM 89.6 °F 93.4 °F 68.0 °F 49% 29.55 in 10.0 mi South 11.5 mph - N/A   Clear
6:15 PM 91.4 °F 95.4 °F 68.0 °F 46% 29.55 in 10.0 mi South 11.5 mph - N/A   Partly Cloudy
6:35 PM 89.6 °F 93.4 °F 68.0 °F 49% 29.55 in 10.0 mi South 6.9 mph - N/A   Partly Cloudy
6:55 PM 89.6 °F 93.4 °F 68.0 °F 49% 29.56 in 10.0 mi South 8.1 mph - N/A   Clear
7:15 PM 89.6 °F 94.7 °F 69.8 °F 52% 29.56 in 10.0 mi South 10.4 mph 16.1 mph N/A   Clear
7:35 PM 89.6 °F 96.2 °F 71.6 °F 55% 29.56 in 10.0 mi SSE 11.5 mph - N/A   Clear
7:55 PM 87.8 °F 95.6 °F 73.4 °F 62% 29.56 in 10.0 mi SSE 11.5 mph - N/A   Clear
8:15 PM 87.8 °F 95.6 °F 73.4 °F 62% 29.57 in 10.0 mi South 8.1 mph - N/A   Clear
8:35 PM 86.0 °F 93.4 °F 73.4 °F 66% 29.57 in 10.0 mi SSE 8.1 mph - N/A   Clear
8:55 PM 84.2 °F 89.6 °F 71.6 °F 66% 29.57 in 10.0 mi SSE 8.1 mph - N/A   Clear
9:15 PM 84.2 °F 90.9 °F 73.4 °F 70% 29.57 in 10.0 mi SE 9.2 mph - N/A   Clear
9:35 PM 82.4 °F 88.2 °F 73.4 °F 74% 29.58 in 10.0 mi ESE 6.9 mph - N/A   Clear
9:55 PM 80.6 °F 85.4 °F 73.4 °F 79% 29.58 in 10.0 mi ESE 8.1 mph - N/A   Scattered Clouds
10:15 PM 82.4 °F 88.2 °F 73.4 °F 74% 29.58 in 10.0 mi SE 9.2 mph - N/A   Mostly Cloudy
10:35 PM 82.4 °F 88.2 °F 73.4 °F 74% 29.59 in 10.0 mi SE 11.5 mph - N/A   Mostly Cloudy
10:55 PM 82.4 °F 88.2 °F 73.4 °F 74% 29.59 in 10.0 mi SE 9.2 mph - N/A   Overcast
11:35 PM 80.6 °F 85.4 °F 73.4 °F 79% 29.59 in 10.0 mi SE 11.5 mph - N/A   Partly Cloudy
11:55 PM 80.6 °F 85.4 °F 73.4 °F 79% 29.58 in 10.0 mi SE 11.5 mph - N/A   Clear